Aviation Digital Data Service (ADDS)

Output produced by METARs form (2214 UTC 29 May 2015)
found at http://www.aviationweather.gov/adds/metars/
 
KDFW 292050Z 2921/3024 25008KT P6SM VCSH BKN035 
     FM292300 24005KT P6SM BKN050 
     FM300500 15008KT P6SM VCTS BKN025CB 
     FM300900 VRB04KT 3SM -TSRA OVC010CB 
     FM301500 33008KT P6SM VCSH BKN025